createdAt,value
2019-02-06T00:02:40.195Z,99.9
2019-02-06T00:07:40.383Z,99.9
2019-02-06T00:12:27.670Z,99.9
2019-02-06T00:17:28.479Z,99.9
2019-02-06T00:22:29.085Z,99.9
2019-02-06T00:27:28.220Z,99.9
2019-02-06T00:32:28.798Z,99.9
2019-02-06T00:37:31.017Z,99.9
2019-02-06T00:42:27.266Z,99.9
2019-02-06T00:47:28.056Z,99.9
2019-02-06T00:52:29.324Z,99.9
2019-02-06T00:57:28.715Z,99.9
2019-02-06T01:02:28.907Z,99.9
2019-02-06T01:07:28.614Z,99.9
2019-02-06T01:12:28.327Z,99.9
2019-02-06T01:17:28.657Z,99.9
2019-02-06T01:22:28.114Z,99.9
2019-02-06T01:27:28.361Z,99.9
2019-02-06T01:32:27.598Z,99.9
2019-02-06T01:37:28.257Z,99.9
2019-02-06T01:42:28.732Z,99.9
2019-02-06T01:47:28.175Z,99.9
2019-02-06T01:52:28.395Z,99.9
2019-02-06T01:57:27.850Z,99.9
2019-02-06T02:02:28.086Z,99.9
2019-02-06T02:07:29.346Z,99.9
2019-02-06T02:12:27.614Z,99.9
2019-02-06T02:17:28.088Z,99.9
2019-02-06T02:22:28.308Z,99.9
2019-02-06T02:27:28.160Z,99.9
2019-02-06T02:32:28.285Z,99.9
2019-02-06T02:37:28.657Z,99.9
2019-02-06T02:42:28.045Z,99.9
2019-02-06T02:47:27.984Z,99.9
2019-02-06T02:52:28.036Z,99.9
2019-02-06T02:57:28.364Z,99.9
2019-02-06T03:02:27.783Z,99.9
2019-02-06T03:07:28.213Z,99.9
2019-02-06T03:12:27.842Z,99.9
2019-02-06T03:17:28.791Z,99.9
2019-02-06T03:22:28.153Z,99.9
2019-02-06T03:27:28.193Z,99.9
2019-02-06T03:32:28.024Z,99.9
2019-02-06T03:37:28.449Z,99.9
2019-02-06T03:42:28.380Z,99.9
2019-02-06T03:47:28.656Z,99.9
2019-02-06T03:52:27.879Z,99.9
2019-02-06T03:57:28.966Z,99.9
2019-02-06T04:02:27.924Z,99.9
2019-02-06T04:07:28.364Z,99.9
2019-02-06T04:12:28.605Z,99.9
2019-02-06T04:17:28.709Z,99.9
2019-02-06T04:22:27.994Z,99.9
2019-02-06T04:27:27.364Z,99.9
2019-02-06T04:32:28.737Z,99.9
2019-02-06T04:37:28.147Z,99.9
2019-02-06T04:42:28.159Z,99.9
2019-02-06T04:47:28.164Z,99.9
2019-02-06T04:52:27.372Z,99.9
2019-02-06T04:57:28.682Z,99.6
2019-02-06T05:02:28.357Z,99.8
2019-02-06T05:07:29.128Z,99.7
2019-02-06T05:12:27.993Z,99.8
2019-02-06T05:17:27.956Z,99.8
2019-02-06T05:22:28.121Z,99.5
2019-02-06T05:27:28.303Z,99.7
2019-02-06T05:32:28.102Z,99.4
2019-02-06T05:37:32.593Z,99.5
2019-02-06T05:42:28.038Z,99.6
2019-02-06T05:47:28.359Z,99.6
2019-02-06T05:52:28.295Z,99.4
2019-02-06T05:57:27.366Z,99.0
2019-02-06T06:02:27.798Z,99.3
2019-02-06T06:07:28.498Z,99.3
2019-02-06T06:12:28.953Z,99.3
2019-02-06T06:17:28.837Z,99.1
2019-02-06T06:22:28.423Z,98.9
2019-02-06T06:27:29.119Z,99.0
2019-02-06T06:32:32.368Z,99.2
2019-02-06T06:37:28.320Z,99.4
2019-02-06T06:42:28.451Z,99.2
2019-02-06T06:47:28.643Z,99.0
2019-02-06T06:52:28.821Z,98.9
2019-02-06T06:57:30.771Z,98.5
2019-02-06T07:02:32.062Z,98.5
2019-02-06T07:07:28.928Z,98.5
2019-02-06T07:12:29.471Z,98.4
2019-02-06T07:17:29.288Z,98.4
2019-02-06T07:22:29.077Z,98.6
2019-02-06T07:27:29.344Z,98.2
2019-02-06T07:32:29.621Z,98.4
2019-02-06T07:37:28.624Z,98.2
2019-02-06T07:42:28.855Z,97.7
2019-02-06T07:47:28.495Z,97.6
2019-02-06T07:52:27.831Z,96.9
2019-02-06T07:57:29.018Z,97.4
2019-02-06T08:02:29.268Z,96.7
2019-02-06T08:07:28.805Z,96.5
2019-02-06T08:12:29.207Z,96.1
2019-02-06T08:17:29.285Z,96.2
2019-02-06T08:22:28.344Z,96.2
2019-02-06T08:27:29.806Z,96.8
2019-02-06T08:32:29.258Z,96.5
2019-02-06T08:37:29.070Z,95.9
2019-02-06T08:42:28.385Z,95.9
2019-02-06T08:47:29.030Z,96.0
2019-02-06T08:52:28.178Z,95.9
2019-02-06T08:57:28.095Z,96.0
2019-02-06T09:02:29.444Z,96.1
2019-02-06T09:07:28.124Z,95.9
2019-02-06T09:12:29.208Z,95.8
2019-02-06T09:17:29.032Z,96.2
2019-02-06T09:22:28.470Z,96.2
2019-02-06T09:27:28.737Z,95.7
2019-02-06T09:32:29.095Z,95.7
2019-02-06T09:37:29.544Z,95.6
2019-02-06T09:42:29.355Z,96.2
2019-02-06T09:47:29.139Z,96.6
2019-02-06T09:52:29.522Z,96.5
2019-02-06T09:57:27.738Z,97.2
2019-02-06T10:02:29.090Z,97.2
2019-02-06T10:07:29.243Z,97.4
2019-02-06T10:12:28.703Z,97.4
2019-02-06T10:17:28.849Z,97.4
2019-02-06T10:22:28.952Z,97.6
2019-02-06T10:27:29.118Z,97.5
2019-02-06T10:32:28.757Z,97.7
2019-02-06T10:37:29.670Z,98.3
2019-02-06T10:42:29.001Z,98.3
2019-02-06T10:47:29.772Z,98.5
2019-02-06T10:52:28.493Z,99.2
2019-02-06T10:57:28.248Z,99.8
2019-02-06T11:02:29.044Z,99.8
2019-02-06T11:07:29.198Z,99.9
2019-02-06T11:12:28.762Z,99.9
2019-02-06T11:17:29.272Z,99.9
2019-02-06T11:22:28.958Z,99.9
2019-02-06T11:27:29.158Z,99.9
2019-02-06T11:32:29.527Z,99.9
2019-02-06T11:37:28.786Z,99.9
2019-02-06T11:42:29.031Z,99.9
2019-02-06T11:47:28.925Z,99.9
2019-02-06T11:52:28.222Z,99.9
2019-02-06T11:57:28.427Z,99.9
2019-02-06T12:02:37.711Z,99.9
2019-02-06T12:07:28.240Z,99.9
2019-02-06T12:12:28.873Z,99.9
2019-02-06T12:17:28.754Z,99.9
2019-02-06T12:22:28.819Z,99.9
2019-02-06T12:27:29.034Z,99.9
2019-02-06T12:32:28.409Z,99.9
2019-02-06T12:37:28.298Z,99.9
2019-02-06T12:42:29.243Z,99.9
2019-02-06T12:47:29.310Z,99.9
2019-02-06T12:52:28.139Z,99.9
2019-02-06T12:57:37.722Z,99.9
2019-02-06T13:02:29.504Z,99.9
2019-02-06T13:07:28.582Z,99.9
2019-02-06T13:12:28.483Z,99.9
2019-02-06T13:17:29.148Z,99.9
2019-02-06T13:22:29.083Z,99.9
2019-02-06T13:27:29.057Z,99.9
2019-02-06T13:32:28.166Z,99.9
2019-02-06T13:37:28.208Z,99.9
2019-02-06T13:42:28.858Z,99.9
2019-02-06T13:47:29.127Z,99.9
2019-02-06T13:52:28.787Z,99.9
2019-02-06T13:57:34.538Z,99.9
2019-02-06T14:02:29.252Z,99.9
2019-02-06T14:07:28.585Z,99.9
2019-02-06T14:12:29.261Z,99.9
2019-02-06T14:17:29.701Z,99.9
2019-02-06T14:22:28.540Z,99.9
2019-02-06T14:27:28.383Z,99.9
2019-02-06T14:32:28.594Z,99.9
2019-02-06T14:37:28.616Z,99.9
2019-02-06T14:42:28.280Z,99.9
2019-02-06T14:47:28.662Z,96.5
2019-02-06T14:52:30.259Z,96.5
2019-02-06T14:57:28.604Z,94.7
2019-02-06T15:02:28.519Z,92.5
2019-02-06T15:07:28.645Z,92.1
2019-02-06T15:12:28.598Z,92.0
2019-02-06T15:17:29.467Z,91.3
2019-02-06T15:22:28.700Z,91.9
2019-02-06T15:27:28.249Z,91.1
2019-02-06T15:32:28.973Z,90.7
2019-02-06T15:37:28.826Z,91.1
2019-02-06T15:42:28.963Z,92.6
2019-02-06T15:47:28.856Z,92.1
2019-02-06T15:52:28.391Z,90.2
2019-02-06T15:57:28.523Z,90.8
2019-02-06T16:02:29.195Z,93.9
2019-02-06T16:07:29.741Z,97.6
2019-02-06T16:12:28.100Z,99.2
2019-02-06T16:17:28.983Z,99.9
2019-02-06T16:22:28.892Z,99.9
2019-02-06T16:27:28.508Z,99.9
2019-02-06T16:32:29.203Z,99.9
2019-02-06T16:37:28.926Z,99.9
2019-02-06T16:42:28.726Z,99.9
2019-02-06T16:47:28.552Z,99.9
2019-02-06T16:52:28.212Z,99.9
2019-02-06T16:57:28.164Z,99.9
2019-02-06T17:02:28.941Z,99.9
2019-02-06T17:07:28.586Z,99.9
2019-02-06T17:12:28.726Z,99.9
2019-02-06T17:17:29.967Z,99.9
2019-02-06T17:22:28.418Z,99.9
2019-02-06T17:27:27.970Z,99.9
2019-02-06T17:32:28.631Z,99.9
2019-02-06T17:37:28.700Z,99.9
2019-02-06T17:42:28.312Z,99.9
2019-02-06T17:47:28.567Z,99.9
2019-02-06T17:52:28.247Z,99.9
2019-02-06T17:57:27.777Z,99.9
2019-02-06T18:02:28.558Z,99.9
2019-02-06T18:07:28.444Z,99.9
2019-02-06T18:12:30.128Z,99.9
2019-02-06T18:17:29.455Z,99.9
2019-02-06T18:22:28.311Z,99.9
2019-02-06T18:27:28.803Z,99.9
2019-02-06T18:32:28.105Z,99.9
2019-02-06T18:37:28.768Z,99.9
2019-02-06T18:42:38.295Z,99.9
2019-02-06T18:47:28.554Z,99.9
2019-02-06T18:52:28.129Z,99.9
2019-02-06T18:57:27.937Z,99.9
2019-02-06T19:02:29.367Z,99.9
2019-02-06T19:07:28.362Z,99.9
2019-02-06T19:12:28.235Z,99.9
2019-02-06T19:17:28.753Z,99.9
2019-02-06T19:22:27.495Z,99.9
2019-02-06T19:27:28.850Z,99.9
2019-02-06T19:32:28.232Z,99.9
2019-02-06T19:37:28.092Z,99.9
2019-02-06T19:42:27.721Z,99.9
2019-02-06T19:47:31.105Z,99.9
2019-02-06T19:52:28.785Z,99.9
2019-02-06T19:57:27.898Z,99.9
2019-02-06T20:02:28.101Z,99.9
2019-02-06T20:07:28.823Z,99.9
2019-02-06T20:12:28.295Z,99.9
2019-02-06T20:17:28.227Z,99.9
2019-02-06T20:22:28.189Z,99.9
2019-02-06T20:27:27.693Z,99.9
2019-02-06T20:32:28.139Z,99.9
2019-02-06T20:37:27.761Z,99.9
2019-02-06T20:42:28.302Z,99.9
2019-02-06T20:47:28.933Z,99.9
2019-02-06T20:52:29.672Z,99.9
2019-02-06T20:57:27.777Z,99.9
2019-02-06T21:02:29.974Z,99.9
2019-02-06T21:07:28.752Z,99.9
2019-02-06T21:12:29.128Z,99.9
2019-02-06T21:17:29.448Z,99.9
2019-02-06T21:22:27.859Z,99.9
2019-02-06T21:27:29.558Z,99.9
2019-02-06T21:32:28.385Z,99.9
2019-02-06T21:37:27.567Z,99.9
2019-02-06T21:42:27.982Z,99.9
2019-02-06T21:47:28.561Z,99.9
2019-02-06T21:52:27.974Z,99.9
2019-02-06T21:57:27.832Z,99.9
2019-02-06T22:02:28.472Z,99.9
2019-02-06T22:07:29.755Z,99.9
2019-02-06T22:12:28.272Z,99.9
2019-02-06T22:17:28.641Z,99.9
2019-02-06T22:22:27.727Z,99.9
2019-02-06T22:27:28.762Z,99.9
2019-02-06T22:32:28.413Z,99.9
2019-02-06T22:37:28.997Z,99.9
2019-02-06T22:42:28.311Z,99.9
2019-02-06T22:47:28.570Z,99.9
2019-02-06T22:52:29.540Z,99.9
2019-02-06T22:57:28.362Z,99.9
2019-02-06T23:02:28.354Z,99.9
2019-02-06T23:07:28.932Z,99.9
2019-02-06T23:12:27.951Z,99.9
2019-02-06T23:22:46.828Z,99.9
2019-02-06T23:27:46.478Z,99.9
2019-02-06T23:32:47.766Z,99.9
2019-02-06T23:37:46.199Z,99.9
2019-02-06T23:42:46.862Z,99.9
2019-02-06T23:47:46.071Z,99.9
2019-02-06T23:52:44.849Z,99.9
2019-02-06T23:57:45.811Z,99.9
